Time;durP1;ratioP1;P1;durP2;ratioP2;P2;SDS_P1;SDS_P2;PMS_P1;PMS_P2;Temp;Humidity;BMP_temperature;BMP_pressure;BME280_temperature;BME280_humidity;BME280_pressure;Samples;Min_cycle;Max_cycle;Signal;HPM_P1;HPM_P2
2023/10/18 00:00:57;;;;;;;4.65;4.25;;;;;;;7.07;nan;99067.41;4961521;28;20208;-80
2023/10/18 00:03:25;;;;;;;8.57;5.95;;;;;;;7.00;nan;99056.50;4954833;28;20200;-79
2023/10/18 00:05:50;;;;;;;6.85;4.95;;;;;;;6.98;nan;99062.75;4968194;28;20390;-80
2023/10/18 00:08:17;;;;;;;7.13;3.97;;;;;;;6.96;nan;99064.59;4957756;28;20203;-80
2023/10/18 00:10:42;;;;;;;7.20;6.50;;;;;;;6.93;nan;99062.16;4956675;28;20221;-80
2023/10/18 00:13:08;;;;;;;9.87;6.60;;;;;;;6.91;nan;99061.41;4960958;28;20250;-79
2023/10/18 00:15:34;;;;;;;6.23;5.60;;;;;;;6.94;nan;99059.47;4959147;28;20232;-80
2023/10/18 00:17:59;;;;;;;5.07;4.50;;;;;;;6.92;nan;99058.72;4956955;28;20451;-79
2023/10/18 00:20:25;;;;;;;6.40;5.40;;;;;;;6.84;nan;99064.38;4955438;28;20228;-79
2023/10/18 00:22:51;;;;;;;8.43;4.43;;;;;;;6.76;nan;99066.56;4953706;28;20193;-79
2023/10/18 00:25:19;;;;;;;5.82;5.25;;;;;;;6.73;nan;99065.91;4957537;28;21028;-80
2023/10/18 00:27:45;;;;;;;5.75;4.55;;;;;;;6.70;nan;99061.72;4958452;28;20376;-79
2023/10/18 00:30:11;;;;;;;6.00;4.30;;;;;;;6.64;nan;99067.25;4953135;28;20216;-80
2023/10/18 00:32:42;;;;;;;5.20;4.68;;;;;;;6.58;nan;99065.84;4958027;28;20213;-80
2023/10/18 00:35:21;;;;;;;7.43;5.65;;;;;;;6.56;nan;99065.09;4960630;28;20260;-80
2023/10/18 00:37:54;;;;;;;8.68;5.88;;;;;;;6.57;nan;99068.53;4952130;28;20810;-80
2023/10/18 00:40:33;;;;;;;7.68;4.72;;;;;;;6.59;nan;99070.16;4963461;28;20322;-79
2023/10/18 00:43:14;;;;;;;5.78;5.20;;;;;;;6.65;nan;99069.78;4956864;28;20688;-79
2023/10/18 00:45:43;;;;;;;8.10;5.47;;;;;;;6.71;nan;99073.00;4956386;28;20525;-79
2023/10/18 00:48:11;;;;;;;7.32;4.88;;;;;;;6.71;nan;99066.00;4960386;28;20312;-79
2023/10/18 00:50:41;;;;;;;5.80;3.95;;;;;;;6.72;nan;99070.28;4956173;28;20200;-79
2023/10/18 00:53:08;;;;;;;6.90;5.22;;;;;;;6.77;nan;99076.06;4955861;28;20228;-78
2023/10/18 00:55:33;;;;;;;5.25;4.53;;;;;;;6.84;nan;99063.53;4961996;28;20243;-79
2023/10/18 00:58:11;;;;;;;7.13;6.43;;;;;;;6.91;nan;99064.84;4950070;28;20777;-79
2023/10/18 01:00:40;;;;;;;7.32;6.25;;;;;;;6.96;nan;99056.75;4950689;28;20196;-79
2023/10/18 01:03:09;;;;;;;8.82;4.93;;;;;;;6.97;nan;99042.78;4949616;28;20185;-79
2023/10/18 01:05:35;;;;;;;6.32;4.68;;;;;;;6.94;nan;99043.81;4947416;28;20699;-79
2023/10/18 01:08:06;;;;;;;7.65;5.75;;;;;;;6.90;nan;99046.69;4965912;28;20199;-79
2023/10/18 01:10:33;;;;;;;6.63;5.78;;;;;;;6.87;nan;99055.53;4948214;28;20200;-79
2023/10/18 01:13:01;;;;;;;8.18;5.03;;;;;;;6.87;nan;99047.69;4949354;28;20556;-79
2023/10/18 01:15:28;;;;;;;5.60;4.90;;;;;;;6.84;nan;99035.66;4957382;28;20207;-79
2023/10/18 01:17:57;;;;;;;8.25;5.80;;;;;;;6.78;nan;99029.97;4958202;28;20200;-79
2023/10/18 01:20:33;;;;;;;5.53;5.00;;;;;;;6.71;nan;99026.00;4961715;28;20509;-79
2023/10/18 01:23:00;;;;;;;7.97;5.65;;;;;;;6.61;nan;99025.69;4955377;28;20211;-79
2023/10/18 01:25:25;;;;;;;8.60;5.28;;;;;;;6.53;nan;99023.50;4956914;28;20259;-79
2023/10/18 01:27:51;;;;;;;7.37;5.97;;;;;;;6.54;nan;99026.97;4959083;28;20204;-79
2023/10/18 01:30:19;;;;;;;8.75;5.90;;;;;;;6.52;nan;99021.81;4954812;28;20683;-79
2023/10/18 01:32:45;;;;;;;10.10;6.25;;;;;;;6.54;nan;99011.31;4959525;28;20220;-79
2023/10/18 01:35:13;;;;;;;8.67;5.80;;;;;;;6.55;nan;99006.00;4955729;28;20204;-79
2023/10/18 01:37:39;;;;;;;8.52;6.63;;;;;;;6.61;nan;99004.81;4955793;28;20444;-79
2023/10/18 01:40:41;;;;;;;11.13;6.90;;;;;;;6.65;nan;99001.09;4962689;28;21246;-79
2023/10/18 01:43:05;;;;;;;5.13;4.60;;;;;;;6.66;nan;99000.16;4958669;28;20282;-79
2023/10/18 01:45:36;;;;;;;5.37;4.63;;;;;;;6.61;nan;98995.19;4956023;28;20195;-79
2023/10/18 01:48:04;;;;;;;4.32;4.03;;;;;;;6.49;nan;98995.91;4971663;28;20567;-79
2023/10/18 01:50:30;;;;;;;6.68;6.05;;;;;;;6.37;nan;98991.38;4956138;28;20200;-78
2023/10/18 01:52:56;;;;;;;6.63;4.43;;;;;;;6.29;nan;98989.22;4953392;28;20342;-79
2023/10/18 01:55:22;;;;;;;5.80;5.13;;;;;;;6.23;nan;98986.94;4953222;28;20230;-79
2023/10/18 01:57:48;;;;;;;8.18;4.78;;;;;;;6.19;nan;98972.41;4954482;28;20196;-79
2023/10/18 02:00:18;;;;;;;6.90;5.40;;;;;;;6.20;nan;98969.69;4969808;28;20197;-79
2023/10/18 02:02:46;;;;;;;5.65;4.28;;;;;;;6.27;nan;98966.75;4953578;28;20678;-79
2023/10/18 02:05:15;;;;;;;8.50;5.53;;;;;;;6.33;nan;98961.19;4952890;28;20365;-79
2023/10/18 02:07:41;;;;;;;7.50;4.85;;;;;;;6.36;nan;98948.81;4949774;28;20771;-79
2023/10/18 02:10:10;;;;;;;9.70;4.93;;;;;;;6.41;nan;98951.16;4953006;28;20188;-79
2023/10/18 02:12:36;;;;;;;9.50;5.90;;;;;;;6.34;nan;98955.88;4960254;23;20237;-78
2023/10/18 02:15:04;;;;;;;10.67;5.20;;;;;;;6.31;nan;98952.59;4910344;28;20687;-77
2023/10/18 02:17:30;;;;;;;7.30;5.90;;;;;;;6.28;nan;98948.41;4936641;28;20733;-78
2023/10/18 02:19:59;;;;;;;5.00;4.03;;;;;;;6.26;nan;98937.22;4941291;28;20217;-78
2023/10/18 02:22:27;;;;;;;5.63;5.07;;;;;;;6.21;nan;98934.00;4937202;28;20215;-77
2023/10/18 02:24:53;;;;;;;6.13;5.22;;;;;;;6.14;nan;98938.75;4939137;28;20200;-78
2023/10/18 02:27:19;;;;;;;8.02;4.88;;;;;;;6.07;nan;98936.56;4941829;28;20797;-77
2023/10/18 02:29:46;;;;;;;6.03;4.60;;;;;;;6.00;nan;98941.28;4944809;28;20526;-78
2023/10/18 02:32:32;;;;;;;4.85;4.28;;;;;;;5.95;nan;98931.13;4925311;28;20499;-78
2023/10/18 02:34:57;;;;;;;5.72;5.15;;;;;;;5.88;nan;98937.56;4943703;28;20203;-77
2023/10/18 02:37:25;;;;;;;6.40;4.20;;;;;;;5.87;nan;98954.13;4919546;28;20200;-78
2023/10/18 02:39:51;;;;;;;6.22;4.65;;;;;;;5.83;nan;98944.78;4938631;28;20671;-77
2023/10/18 02:42:18;;;;;;;10.52;6.38;;;;;;;5.77;nan;98948.56;4924002;28;20327;-77
2023/10/18 02:44:44;;;;;;;8.35;5.47;;;;;;;5.74;nan;98945.28;4940381;28;20213;-79
2023/10/18 02:47:22;;;;;;;4.75;4.15;;;;;;;5.71;nan;98935.88;4942210;28;20674;-77
2023/10/18 02:49:51;;;;;;;6.15;5.20;;;;;;;5.70;nan;98938.59;4936525;28;20204;-78
2023/10/18 02:52:20;;;;;;;6.47;5.90;;;;;;;5.74;nan;98930.50;4934942;28;20799;-77
2023/10/18 02:54:48;;;;;;;11.55;6.20;;;;;;;5.80;nan;98924.09;4918900;28;20326;-77
2023/10/18 02:57:14;;;;;;;9.35;5.25;;;;;;;5.85;nan;98921.25;4939283;28;20798;-78
2023/10/18 02:59:43;;;;;;;8.50;6.47;;;;;;;5.93;nan;98926.88;4920236;28;20687;-77
2023/10/18 03:02:15;;;;;;;10.35;5.70;;;;;;;6.03;nan;98930.69;4918642;28;20300;-78
2023/10/18 03:04:42;;;;;;;9.55;5.25;;;;;;;6.12;nan;98931.94;4940879;28;20290;-78
2023/10/18 03:07:10;;;;;;;10.77;6.93;;;;;;;6.23;nan;98929.56;4948050;28;20447;-79
2023/10/18 03:12:02;;;;;;;6.77;6.17;;;;;;;6.33;nan;98925.50;4945347;28;20744;-78
2023/10/18 03:14:41;;;;;;;5.80;5.30;;;;;;;6.32;nan;98916.03;4949998;28;20216;-79
2023/10/18 03:17:24;;;;;;;12.23;5.95;;;;;;;6.22;nan;98914.84;4948255;28;20208;-78
2023/10/18 03:19:56;;;;;;;6.40;5.15;;;;;;;6.15;nan;98908.28;4951163;28;20621;-78
2023/10/18 03:22:23;;;;;;;7.50;6.15;;;;;;;6.08;nan;98901.78;4947633;28;20205;-78
2023/10/18 03:24:56;;;;;;;6.55;5.70;;;;;;;5.99;nan;98903.09;4950141;28;20354;-78
2023/10/18 03:27:25;;;;;;;8.02;5.82;;;;;;;5.91;nan;98894.84;4944039;28;20885;-78
2023/10/18 03:29:57;;;;;;;7.72;6.93;;;;;;;5.89;nan;98891.50;4928034;28;20200;-78
2023/10/18 03:32:24;;;;;;;7.10;6.50;;;;;;;5.91;nan;98890.50;4946952;28;20610;-78
2023/10/18 03:34:52;;;;;;;6.90;6.20;;;;;;;5.94;nan;98885.13;4948818;28;20678;-78
2023/10/18 03:37:21;;;;;;;9.68;6.10;;;;;;;6.00;nan;98894.38;4945116;28;20267;-78
2023/10/18 03:39:49;;;;;;;9.25;6.15;;;;;;;6.07;nan;98892.25;4937803;28;20597;-78
2023/10/18 03:45:13;;;;;;;7.75;5.63;;;;;;;6.24;nan;98876.50;4932315;28;20290;-78
2023/10/18 03:47:39;;;;;;;6.88;5.85;;;;;;;6.32;nan;98878.63;4926838;28;20231;-78
2023/10/18 03:50:28;;;;;;;6.97;5.77;;;;;;;6.37;nan;98867.03;4948554;28;20229;-78
2023/10/18 03:52:53;;;;;;;9.13;7.10;;;;;;;6.43;nan;98874.50;4943097;28;20919;-78
2023/10/18 03:55:22;;;;;;;9.10;7.03;;;;;;;6.45;nan;98857.91;4950153;28;20565;-78
2023/10/18 03:57:54;;;;;;;7.70;5.82;;;;;;;6.44;nan;98870.13;4928983;28;20212;-77
2023/10/18 04:02:59;;;;;;;8.93;6.97;;;;;;;6.47;nan;98858.66;4941714;28;20203;-77
2023/10/18 04:05:42;;;;;;;10.60;8.25;;;;;;;6.51;nan;98853.19;4947343;28;20563;-78
2023/10/18 04:08:16;;;;;;;6.50;5.85;;;;;;;6.47;nan;98845.63;4949288;28;20254;-78
2023/10/18 04:10:43;;;;;;;9.40;6.20;;;;;;;6.40;nan;98847.75;4936000;28;20294;-78
2023/10/18 04:13:11;;;;;;;6.80;6.20;;;;;;;6.39;nan;98854.72;4946111;28;20568;-78
2023/10/18 04:15:39;;;;;;;7.55;6.70;;;;;;;6.39;nan;98854.72;4946586;28;20580;-78
2023/10/18 04:20:40;;;;;;;8.15;6.70;;;;;;;6.37;nan;98858.34;4947869;28;20803;-78
2023/10/18 04:23:18;;;;;;;8.40;7.07;;;;;;;6.38;nan;98862.66;4949542;28;20224;-78
2023/10/18 04:25:52;;;;;;;9.65;7.07;;;;;;;6.37;nan;98853.13;4948288;28;20230;-78
2023/10/18 04:28:18;;;;;;;8.85;6.63;;;;;;;6.37;nan;98872.25;4943763;28;22609;-77
2023/10/18 04:30:45;;;;;;;11.30;6.70;;;;;;;6.38;nan;98865.25;4943572;28;20520;-78
2023/10/18 04:35:44;;;;;;;7.20;5.83;;;;;;;6.40;nan;98847.75;4941663;28;20828;-78
2023/10/18 04:38:21;;;;;;;9.98;7.13;;;;;;;6.43;nan;98855.41;4940924;28;20461;-78
2023/10/18 04:41:02;;;;;;;7.05;6.35;;;;;;;6.46;nan;98849.16;4941015;28;20235;-78
2023/10/18 04:43:28;;;;;;;8.23;7.20;;;;;;;6.47;nan;98835.19;4940843;28;20216;-78
2023/10/18 04:45:57;;;;;;;10.30;7.13;;;;;;;6.48;nan;98826.41;4942165;28;20661;-78
2023/10/18 04:51:06;;;;;;;8.75;7.38;;;;;;;6.47;nan;98850.84;4942596;28;20197;-78
2023/10/18 04:53:33;;;;;;;9.33;7.70;;;;;;;6.46;nan;98852.59;4939885;28;20227;-78
2023/10/18 04:55:58;;;;;;;9.68;7.45;;;;;;;6.45;nan;98827.44;4938705;28;20359;-78
2023/10/18 04:58:29;;;;;;;14.07;8.50;;;;;;;6.40;nan;98824.28;4941514;28;20205;-78
2023/10/18 05:00:57;;;;;;;10.27;6.88;;;;;;;6.39;nan;98833.84;4944760;28;20533;-78
2023/10/18 05:03:30;;;;;;;9.50;8.50;;;;;;;6.30;nan;98817.91;4943988;28;20237;-78
2023/10/18 05:05:56;;;;;;;11.88;8.82;;;;;;;6.31;nan;98832.63;4947493;28;20455;-78
2023/10/18 05:08:23;;;;;;;11.10;7.97;;;;;;;6.33;nan;98818.56;4944914;28;20676;-78
2023/10/18 05:10:52;;;;;;;10.80;8.40;;;;;;;6.24;nan;98807.81;4946809;28;20768;-78
2023/10/18 05:13:33;;;;;;;8.98;8.18;;;;;;;6.28;nan;98810.19;4944670;28;20703;-78
2023/10/18 05:16:00;;;;;;;9.82;7.40;;;;;;;6.31;nan;98799.56;4950146;28;20295;-78
2023/10/18 05:18:26;;;;;;;14.52;9.00;;;;;;;6.35;nan;98789.81;4948193;28;20684;-78
2023/10/18 05:23:22;;;;;;;11.57;9.50;;;;;;;6.30;nan;98790.06;4945833;28;20209;-78
2023/10/18 05:25:49;;;;;;;10.40;7.97;;;;;;;6.31;nan;98791.72;4948426;28;20204;-78
2023/10/18 05:28:24;;;;;;;10.45;7.82;;;;;;;6.33;nan;98792.50;4947159;28;20201;-78
2023/10/18 05:36:29;;;;;;;9.45;8.45;;;;;;;6.49;nan;98796.81;4949063;28;20283;-78
2023/10/18 05:38:56;;;;;;;15.32;8.40;;;;;;;6.53;nan;98782.63;4948745;28;20211;-78
2023/10/18 05:41:28;;;;;;;9.98;8.55;;;;;;;6.56;nan;98783.31;4946154;28;20725;-78
2023/10/18 05:44:00;;;;;;;10.90;9.40;;;;;;;6.60;nan;98770.91;4945213;28;20205;-78
2023/10/18 05:46:35;;;;;;;15.05;9.77;;;;;;;6.62;nan;98761.22;4947362;28;20713;-77
2023/10/18 05:49:01;;;;;;;16.40;9.40;;;;;;;6.65;nan;98766.25;4948158;28;20204;-78
2023/10/18 05:51:32;;;;;;;17.30;8.77;;;;;;;6.65;nan;98758.41;4948081;28;20220;-78
2023/10/18 05:53:59;;;;;;;12.35;9.00;;;;;;;6.66;nan;98760.09;4947746;28;20616;-77
2023/10/18 05:56:31;;;;;;;11.23;7.70;;;;;;;6.64;nan;98767.16;4945401;28;20197;-76
2023/10/18 06:01:42;;;;;;;13.90;9.10;;;;;;;6.60;nan;98774.34;4939167;28;20207;-77
2023/10/18 06:04:07;;;;;;;12.95;9.70;;;;;;;6.63;nan;98768.09;4942999;28;20443;-77
2023/10/18 06:06:37;;;;;;;15.97;10.20;;;;;;;6.65;nan;98781.91;4941493;28;20207;-77
2023/10/18 06:09:09;;;;;;;19.20;10.38;;;;;;;6.67;nan;98784.41;4942630;28;20200;-77
2023/10/18 06:11:36;;;;;;;18.85;11.00;;;;;;;6.65;nan;98777.50;4941792;28;21138;-77
2023/10/18 06:14:08;;;;;;;13.95;10.68;;;;;;;6.65;nan;98774.91;4938120;28;20231;-77
2023/10/18 06:16:35;;;;;;;11.95;10.27;;;;;;;6.66;nan;98780.97;4939736;28;20799;-77
2023/10/18 06:19:06;;;;;;;22.33;11.23;;;;;;;6.70;nan;98769.41;4942242;28;20386;-78
2023/10/18 06:21:36;;;;;;;16.33;11.95;;;;;;;6.72;nan;98767.53;4943419;28;20401;-76
2023/10/18 06:24:09;;;;;;;19.70;12.85;;;;;;;6.77;nan;98769.88;4939029;28;20194;-77
2023/10/18 06:26:36;;;;;;;23.08;11.48;;;;;;;6.79;nan;98763.63;4942220;28;20201;-77
2023/10/18 06:29:02;;;;;;;16.50;12.57;;;;;;;6.84;nan;98769.41;4940631;28;20623;-77
2023/10/18 06:31:31;;;;;;;14.68;11.77;;;;;;;6.90;nan;98765.56;4943313;28;20569;-77
2023/10/18 06:33:59;;;;;;;17.98;12.20;;;;;;;6.95;nan;98760.06;4938578;28;20556;-77
2023/10/18 06:36:25;;;;;;;14.73;11.55;;;;;;;7.00;nan;98771.91;4942120;28;20216;-77
2023/10/18 06:38:51;;;;;;;14.20;10.10;;;;;;;7.04;nan;98773.38;4941812;28;20936;-77
2023/10/18 06:41:21;;;;;;;16.20;10.60;;;;;;;7.07;nan;98780.16;4943435;28;20331;-77
2023/10/18 06:43:49;;;;;;;13.73;10.40;;;;;;;7.09;nan;98778.31;4944079;28;20201;-77
2023/10/18 06:46:22;;;;;;;15.85;10.40;;;;;;;7.14;nan;98773.66;4945519;28;20212;-77
2023/10/18 06:48:50;;;;;;;15.20;11.02;;;;;;;7.18;nan;98774.28;4947386;28;20202;-77
2023/10/18 06:51:22;;;;;;;17.77;10.90;;;;;;;7.20;nan;98778.47;4946060;28;20494;-77
2023/10/18 06:53:55;;;;;;;17.17;12.55;;;;;;;7.20;nan;98775.84;4947432;28;20205;-77
2023/10/18 06:56:20;;;;;;;16.02;11.30;;;;;;;7.23;nan;98772.22;4942753;28;20197;-77
2023/10/18 06:58:45;;;;;;;14.87;11.10;;;;;;;7.24;nan;98779.97;4948349;28;20556;-77
2023/10/18 07:01:19;;;;;;;21.00;11.20;;;;;;;7.28;nan;98773.59;4946405;28;20369;-78
2023/10/18 07:03:45;;;;;;;16.98;11.02;;;;;;;7.32;nan;98772.47;4942462;28;20488;-77
2023/10/18 07:06:18;;;;;;;18.10;11.33;;;;;;;7.36;nan;98780.13;4942912;28;20192;-77
2023/10/18 07:08:45;;;;;;;14.90;11.90;;;;;;;7.41;nan;98785.91;4943457;28;20482;-77
2023/10/18 07:11:18;;;;;;;17.77;10.68;;;;;;;7.46;nan;98778.59;4945765;28;20424;-77
2023/10/18 07:13:49;;;;;;;16.50;10.85;;;;;;;7.48;nan;98761.03;4945534;28;20757;-77
2023/10/18 07:21:42;;;;;;;19.98;11.73;;;;;;;7.56;nan;98757.94;4936438;28;20524;-77
2023/10/18 07:24:11;;;;;;;16.48;11.02;;;;;;;7.59;nan;98763.81;4937334;28;20188;-77
2023/10/18 07:26:40;;;;;;;15.07;11.60;;;;;;;7.67;nan;98760.69;4940302;28;20626;-77
2023/10/18 07:29:09;;;;;;;15.68;11.20;;;;;;;7.66;nan;98759.00;4944954;28;20205;-77
2023/10/18 07:31:46;;;;;;;17.20;12.00;;;;;;;7.66;nan;98764.25;4944255;28;20251;-77
2023/10/18 07:34:19;;;;;;;18.95;12.65;;;;;;;7.70;nan;98756.09;4947782;28;20823;-76
2023/10/18 07:36:47;;;;;;;22.23;16.08;;;;;;;7.78;nan;98753.00;4944475;28;20490;-78
2023/10/18 07:39:16;;;;;;;24.10;14.00;;;;;;;7.75;nan;98748.81;4945196;28;20283;-75
2023/10/18 07:41:42;;;;;;;20.70;13.80;;;;;;;7.75;nan;98748.81;4944636;28;20205;-76
2023/10/18 07:44:08;;;;;;;18.52;12.45;;;;;;;7.79;nan;98748.59;4948056;28;20215;-76
2023/10/18 07:46:39;;;;;;;24.40;12.70;;;;;;;7.81;nan;98734.50;4939522;28;20201;-76
2023/10/18 07:49:15;;;;;;;19.15;13.00;;;;;;;7.84;nan;98733.44;4944082;28;20833;-76
2023/10/18 07:51:55;;;;;;;24.42;13.45;;;;;;;7.87;nan;98731.47;4944936;28;20200;-76
2023/10/18 07:54:22;;;;;;;20.50;12.70;;;;;;;7.94;nan;98737.97;4944606;28;20305;-76
2023/10/18 07:56:54;;;;;;;18.02;12.43;;;;;;;8.02;nan;98736.59;4940251;28;20572;-76
2023/10/18 07:59:27;;;;;;;15.73;11.68;;;;;;;8.06;nan;98731.06;4944917;28;20299;-76
2023/10/18 08:04:25;;;;;;;19.13;12.25;;;;;;;8.20;nan;98730.13;4944001;28;20582;-76
2023/10/18 08:06:50;;;;;;;19.60;15.30;;;;;;;8.30;nan;98727.72;4944469;28;20966;-76
2023/10/18 08:09:28;;;;;;;20.70;13.33;;;;;;;8.39;nan;98712.25;4944140;28;20196;-76
2023/10/18 08:11:54;;;;;;;15.90;12.82;;;;;;;8.50;nan;98711.50;4943533;28;20212;-77
2023/10/18 08:14:24;;;;;;;18.92;13.55;;;;;;;8.60;nan;98702.06;4940962;23;20356;-79
2023/10/18 08:16:56;;;;;;;25.90;14.65;;;;;;;8.69;nan;98697.13;4908957;28;20205;-80
2023/10/18 08:19:25;;;;;;;16.38;13.52;;;;;;;8.76;nan;98701.00;4923237;28;20201;-81
2023/10/18 08:24:35;;;;;;;20.73;13.05;;;;;;;8.77;nan;98689.59;4937572;28;20193;-80
2023/10/18 08:27:10;;;;;;;22.27;14.85;;;;;;;8.66;nan;98689.50;4942035;28;20299;-82
2023/10/18 08:29:36;;;;;;;19.50;11.90;;;;;;;8.59;nan;98692.56;4942275;28;20232;-79
2023/10/18 08:32:15;;;;;;;24.08;13.80;;;;;;;8.60;nan;98689.00;4943699;28;20215;-78
2023/10/18 08:34:50;;;;;;;21.27;14.68;;;;;;;8.60;nan;98689.00;4946447;28;20303;-80
2023/10/18 08:37:16;;;;;;;15.15;12.18;;;;;;;8.67;nan;98685.94;4948385;28;20212;-78
2023/10/18 08:39:53;;;;;;;18.00;13.70;;;;;;;8.73;nan;98675.06;4946815;28;20254;-78
2023/10/18 08:42:39;;;;;;;22.17;13.90;;;;;;;8.74;nan;98671.47;4944875;28;20593;-81
2023/10/18 08:45:09;;;;;;;18.92;12.90;;;;;;;8.71;nan;98677.75;4942258;28;20205;-78
2023/10/18 08:47:39;;;;;;;27.27;14.02;;;;;;;8.74;nan;98676.72;4947169;28;20284;-77
2023/10/18 08:50:08;;;;;;;17.85;12.93;;;;;;;8.79;nan;98685.09;4947224;28;20748;-79
2023/10/18 08:52:35;;;;;;;17.13;12.13;;;;;;;8.84;nan;98678.56;4946432;28;20303;-80
2023/10/18 08:55:19;;;;;;;20.17;13.95;;;;;;;8.91;nan;98680.75;4944256;28;20267;-80
2023/10/18 08:57:46;;;;;;;23.30;14.60;;;;;;;9.01;nan;98687.81;4943278;28;20264;-78
2023/10/18 09:02:52;;;;;;;21.48;12.95;;;;;;;9.24;nan;98685.34;4945913;28;20324;-78
2023/10/18 09:05:25;;;;;;;25.02;17.10;;;;;;;9.36;nan;98686.22;4943785;28;20906;-78
2023/10/18 09:07:55;;;;;;;24.52;17.95;;;;;;;9.46;nan;98688.06;4943485;28;20763;-81
2023/10/18 09:10:33;;;;;;;28.63;16.33;;;;;;;9.56;nan;98684.75;4941869;28;20219;-82
2023/10/18 09:18:26;;;;;;;21.25;14.68;;;;;;;9.82;nan;98670.53;4944287;28;20721;-81
2023/10/18 09:20:55;;;;;;;14.75;13.20;;;;;;;9.86;nan;98671.97;4940557;28;20259;-82
2023/10/18 09:23:21;;;;;;;20.02;15.38;;;;;;;9.86;nan;98669.34;4945233;28;20292;-81
2023/10/18 09:25:48;;;;;;;21.45;15.23;;;;;;;9.88;nan;98666.59;4943068;28;20298;-80
2023/10/18 09:28:25;;;;;;;18.67;12.40;;;;;;;9.88;nan;98664.84;4947099;28;20686;-81
2023/10/18 09:31:00;;;;;;;22.42;13.70;;;;;;;9.91;nan;98653.25;4936144;28;20208;-78
2023/10/18 09:33:27;;;;;;;17.00;13.45;;;;;;;9.95;nan;98645.03;4936807;28;20212;-82
2023/10/18 09:36:01;;;;;;;20.05;14.70;;;;;;;9.98;nan;98652.66;4933388;28;20447;-80
2023/10/18 09:38:39;;;;;;;18.33;13.23;;;;;;;10.05;nan;98642.56;4940040;28;20927;-80
2023/10/18 09:41:05;;;;;;;19.52;13.82;;;;;;;10.12;nan;98643.72;4944207;28;20718;-78
2023/10/18 09:43:32;;;;;;;15.75;12.13;;;;;;;10.18;nan;98638.03;4935042;28;20204;-79
2023/10/18 09:45:59;;;;;;;17.05;13.20;;;;;;;10.24;nan;98644.59;4940619;28;20616;-75
2023/10/18 09:48:25;;;;;;;24.42;15.38;;;;;;;10.30;nan;98635.44;4941916;28;20197;-78
2023/10/18 09:50:53;;;;;;;24.02;14.88;;;;;;;10.38;nan;98625.16;4944694;28;20196;-80
2023/10/18 09:53:22;;;;;;;15.70;13.50;;;;;;;10.44;nan;98618.59;4945907;28;20296;-76
2023/10/18 09:55:50;;;;;;;18.58;15.90;;;;;;;10.51;nan;98619.78;4942607;28;23144;-75
2023/10/18 09:58:18;;;;;;;22.10;14.95;;;;;;;10.60;nan;98605.91;4939570;28;20200;-79
2023/10/18 10:00:47;;;;;;;27.35;16.02;;;;;;;10.70;nan;98608.66;4939124;28;20893;-75
2023/10/18 10:03:24;;;;;;;15.63;13.90;;;;;;;10.78;nan;98604.44;4943978;28;20919;-78
2023/10/18 10:05:50;;;;;;;22.27;15.98;;;;;;;10.84;nan;98618.88;4943169;28;21029;-80
2023/10/18 10:08:18;;;;;;;19.50;15.77;;;;;;;10.88;nan;98614.19;4943570;28;20203;-78
2023/10/18 10:10:49;;;;;;;22.20;16.42;;;;;;;10.87;nan;98618.63;4942581;28;20459;-81
2023/10/18 10:13:18;;;;;;;21.67;16.70;;;;;;;10.90;nan;98617.53;4943923;28;20212;-81
2023/10/18 10:15:57;;;;;;;19.08;15.23;;;;;;;10.92;nan;98619.09;4962435;28;20219;-78
2023/10/18 10:18:30;;;;;;;21.00;15.30;;;;;;;10.93;nan;98610.25;4965256;28;20191;-81
2023/10/18 10:20:58;;;;;;;17.63;13.25;;;;;;;10.92;nan;98605.13;4965259;28;20208;-78
2023/10/18 10:23:24;;;;;;;18.42;13.15;;;;;;;10.87;nan;98597.63;4965745;28;20220;-79
2023/10/18 10:26:21;;;;;;;21.87;13.47;;;;;;;10.82;nan;98595.34;4965441;28;20261;-79
2023/10/18 10:31:54;;;;;;;18.58;13.15;;;;;;;10.75;nan;98603.88;4960488;28;20202;-78
2023/10/18 10:34:24;;;;;;;22.33;14.65;;;;;;;10.78;nan;98609.69;4962837;28;20212;-79
2023/10/18 10:37:18;;;;;;;21.73;14.73;;;;;;;10.79;nan;98606.09;4963719;28;20769;-75
2023/10/18 10:39:45;;;;;;;21.25;13.73;;;;;;;10.81;nan;98593.69;4966505;28;20216;-75
2023/10/18 10:42:41;;;;;;;20.77;14.60;;;;;;;10.80;nan;98584.16;4968518;28;20258;-78
2023/10/18 10:45:23;;;;;;;18.38;14.25;;;;;;;10.80;nan;98584.16;4966640;28;20331;-75
2023/10/18 10:47:50;;;;;;;20.60;15.73;;;;;;;10.78;nan;98572.94;4963033;28;20188;-79
2023/10/18 10:50:42;;;;;;;18.42;15.10;;;;;;;10.81;nan;98567.41;4962260;28;20685;-77
2023/10/18 10:53:11;;;;;;;17.02;14.23;;;;;;;10.79;nan;98552.75;4969581;28;20702;-77
2023/10/18 10:55:38;;;;;;;18.25;13.15;;;;;;;10.79;nan;98552.75;4968225;28;20714;-79
2023/10/18 10:58:15;;;;;;;18.58;14.13;;;;;;;10.81;nan;98551.66;4967271;28;20517;-76
2023/10/18 11:01:03;;;;;;;22.52;15.05;;;;;;;10.87;nan;98552.13;4966592;28;20211;-77
2023/10/18 11:03:30;;;;;;;21.88;16.52;;;;;;;10.91;nan;98557.00;4971784;28;20283;-75
2023/10/18 11:05:58;;;;;;;20.98;15.85;;;;;;;10.98;nan;98539.75;4970765;28;20447;-79
2023/10/18 11:08:25;;;;;;;22.92;14.25;;;;;;;11.05;nan;98538.31;4963491;28;20196;-78
2023/10/18 11:10:51;;;;;;;20.23;15.63;;;;;;;11.12;nan;98522.84;4961495;28;20196;-78
2023/10/18 11:13:22;;;;;;;16.90;14.27;;;;;;;11.17;nan;98522.47;4962655;28;20224;-78
2023/10/18 11:15:50;;;;;;;20.55;13.88;;;;;;;11.20;nan;98536.19;4967414;28;20816;-79
2023/10/18 11:18:22;;;;;;;22.33;16.20;;;;;;;11.23;nan;98520.19;4966029;28;20196;-79
2023/10/18 11:24:02;;;;;;;21.80;15.50;;;;;;;11.26;nan;98471.75;4927066;29;20494;-75
2023/10/18 11:26:28;;;;;;;20.92;15.65;;;;;;;11.30;nan;98479.25;4956194;28;20277;-75
2023/10/18 11:28:59;;;;;;;18.80;14.50;;;;;;;11.32;nan;98487.03;4963817;28;20212;-80
2023/10/18 11:31:29;;;;;;;18.55;13.52;;;;;;;11.35;nan;98505.16;4968192;28;20216;-79
2023/10/18 11:34:05;;;;;;;16.98;13.98;;;;;;;11.40;nan;98483.75;4960002;28;20211;-76
2023/10/18 11:36:32;;;;;;;21.88;16.40;;;;;;;11.45;nan;98476.28;4963868;28;20452;-78
2023/10/18 11:41:41;;;;;;;21.75;15.68;;;;;;;11.53;nan;98450.19;4967580;28;20201;-80
2023/10/18 11:44:13;;;;;;;19.63;14.70;;;;;;;11.58;nan;98431.34;4962278;28;20208;-79
2023/10/18 11:46:51;;;;;;;17.08;14.23;;;;;;;11.57;nan;98443.69;4962086;28;20203;-78
2023/10/18 11:49:19;;;;;;;20.05;14.00;;;;;;;11.59;nan;98446.19;4965341;28;20678;-79
2023/10/18 11:51:50;;;;;;;19.75;14.38;;;;;;;11.61;nan;98444.25;4969209;28;20192;-78
2023/10/18 11:54:31;;;;;;;20.48;15.77;;;;;;;11.63;nan;98431.78;4963157;28;20601;-77
2023/10/18 11:56:58;;;;;;;24.45;14.75;;;;;;;11.63;nan;98419.47;4945946;28;20258;-79
2023/10/18 11:59:28;;;;;;;18.38;14.68;;;;;;;11.64;nan;98402.75;4965909;28;20200;-78
2023/10/18 12:01:58;;;;;;;23.80;16.52;;;;;;;11.65;nan;98383.34;4964145;28;20234;-75
2023/10/18 12:04:27;;;;;;;24.27;14.82;;;;;;;11.68;nan;98377.81;4965795;28;20920;-75
2023/10/18 12:06:57;;;;;;;24.95;17.83;;;;;;;11.71;nan;98380.19;4962740;28;20446;-79
2023/10/18 12:11:50;;;;;;;25.83;16.30;;;;;;;11.77;nan;98393.75;4965724;28;20246;-75
2023/10/18 12:14:15;;;;;;;24.83;17.17;;;;;;;11.86;nan;98393.00;4961547;28;20236;-79
2023/10/18 12:16:44;;;;;;;19.13;13.47;;;;;;;11.91;nan;98394.25;4968010;28;20208;-78
2023/10/18 12:19:10;;;;;;;24.90;16.48;;;;;;;11.93;nan;98381.78;4947810;28;20718;-77
2023/10/18 12:21:49;;;;;;;21.58;15.73;;;;;;;11.95;nan;98364.06;4963794;28;20246;-78
2023/10/18 12:24:15;;;;;;;23.50;14.57;;;;;;;12.01;nan;98373.19;4961362;28;20203;-74
2023/10/18 12:26:41;;;;;;;25.83;16.52;;;;;;;12.06;nan;98363.09;4963113;28;20274;-78
2023/10/18 12:29:06;;;;;;;22.60;16.60;;;;;;;12.11;nan;98366.16;4962309;28;20742;-79
2023/10/18 12:31:42;;;;;;;21.13;15.27;;;;;;;12.21;nan;98365.34;4963562;28;20441;-77
2023/10/18 12:34:09;;;;;;;21.98;16.13;;;;;;;12.32;nan;98367.84;4966403;28;20196;-75
2023/10/18 12:36:38;;;;;;;20.27;17.35;;;;;;;12.42;nan;98371.25;4966082;28;20448;-77
2023/10/18 12:39:09;;;;;;;20.02;14.18;;;;;;;12.52;nan;98372.09;4965704;28;20301;-77
2023/10/18 12:41:41;;;;;;;22.55;17.25;;;;;;;12.61;nan;98360.72;4965580;28;20201;-78
2023/10/18 12:44:18;;;;;;;22.98;13.70;;;;;;;12.68;nan;98358.34;4965511;28;20697;-78
2023/10/18 12:46:50;;;;;;;21.15;15.23;;;;;;;12.74;nan;98349.88;4967366;28;20580;-78
2023/10/18 12:49:22;;;;;;;22.83;15.07;;;;;;;12.82;nan;98354.44;4969682;28;20205;-76
2023/10/18 12:51:58;;;;;;;18.33;13.90;;;;;;;12.88;nan;98348.63;4969030;28;20231;-76
2023/10/18 12:54:29;;;;;;;20.95;13.18;;;;;;;12.90;nan;98354.56;4966702;28;20294;-77
2023/10/18 12:57:08;;;;;;;19.92;14.10;;;;;;;12.89;nan;98350.25;4966528;28;20200;-75